Castle Rock, CO

8:51 AM MDT on October 24, 2014 (GMT -0600)
Escavera/The Woodlands | Change Station
CLOSE
Current Station
Personal Weather Station
Location: Castle Rock, CO
Elevation: 6421 ft
Nearby Weather Stations

Elev 6421 ft 39.38 °N, 104.84 °W | Updated 23 seconds ago

Partly Cloudy
Partly Cloudy
55.8 °F
Feels Like 55.8 °F
N
0.0
Wind Variable Wind from SSW
Gusts 0.0 mph

Today
High -- | Low -- °F
--% Chance of Precip.
Yesterday
High -- | Low -- °F
Precip. -- in
7:18 AM 6:07 PM
New Moon, 1% visible
Pressure 30.09 in
Visibility 10.0 miles
Clouds Few 11000 ft
Few 15000 ft
Mostly Cloudy 20000 ft
Dew Point 27 °F
Humidity 33%
Rainfall 0.00 in
Snow Depth Not available.
UV 0 out of 12
Pollen 3.20 out of 12
PM2.5 Good
Flu Activity Sporadic
METAR KAPA 241353Z 19005KT 10SM FEW110 FEW150 BKN200 13/M03 A3020 RMK AO2 SLP188 ACSL DSNT W-NW T01331028

More Conditions Fewer Conditions

Pressure 30.09 in
Visibility 10.0 miles
Clouds Few 11000 ft
Few 15000 ft
Mostly Cloudy 20000 ft
Dew Point 27 °F
Humidity 33%
Rainfall 0.00 in
Snow Depth Not available.
UV 0 out of 12
Pollen 3.20 out of 12
PM2.5 Good
Flu Activity Sporadic
METAR KAPA 241353Z 19005KT 10SM FEW110 FEW150 BKN200 13/M03 A3020 RMK AO2 SLP188 ACSL DSNT W-NW T01331028

More Conditions Fewer Conditions

10-Day Weather Forecast

Almanac

Astronomy

Oct. 24, 2014 Rise Set
Actual Time 7:18 AM MDT 6:07 PM MDT
Civil Twilight 6:51 AM MDT 6:35 PM MDT
Nautical Twilight 6:19 AM MDT 7:06 PM MDT
Astronomical Twilight 5:48 AM MDT 7:37 PM MDT
Moon 8:00 AM MDT 6:49 PM MDT
Length of Visible Light 11h 43m
Length of Day
10h 49m
Tomorrow will be 2m 22s shorter.
New Moon, 1% of the Moon is Illuminated
Today
New Moon
Oct 30
First Quarter
Nov 6
Full
Nov 14
Last Quarter
Nov 22
New

Today's Extremes

State Highs State Lows

Community

WunderPhotos

Upload Photos

1,764,581 photos uploaded!

Nearby

Air Quality

  Air Quality AQ Index Pollutant
Yesterday Good
OZONE
Yesterday Good
PM10
Current Good
PM2.5
Friday Good
OZONE
Friday Good
PM2.5

Snow Depth

Station Depth Elevation
Glen Cove 0 in 11460 ft
Echo Lake 0 in 10600 ft
Jackwhacker Gulch 0 in 10960 ft
Lake Eldora 0 in 9700 ft
Berthoud Summit 0 in 11300 ft

Earthquake Activity

City Distance Mag. Time & Date
No recent earthquake activity has been reported nearby.
Minimum magnitude displayed is 2.5.

Coastal Water Temperatures

Place Temperature
No Stations Reporting

Nearby Weather Stations